Terminal Aerodrome Forecast
Issued by NWS Missoula, MT

Current Version | Previous Version | Text Only | Print | Product List | Glossary On
Versions: 1 2 3 4 5 6 7 8 9 10 11 12 13 14 15 16 17 18
000
FTUS45 KMSO 042320
TAFBTM
TAF
KBTM 042320Z 0500/0524 22010G20KT P6SM VCSH SCT020 OVC060
     FM050200 34011G18KT 1SM -SN BR OVC010
     FM050500 31010KT 3SM -SN BKN030 OVC050=

USA.gov is the U.S. government's official web portal to all federal, state and local government web resources and services.